createdAt,value
2018-09-07T00:00:06.467Z,0
2018-09-07T00:01:06.450Z,0
2018-09-07T00:02:06.468Z,0
2018-09-07T00:03:06.904Z,0
2018-09-07T00:04:06.462Z,0
2018-09-07T00:05:06.762Z,0
2018-09-07T00:06:06.424Z,0
2018-09-07T00:07:06.456Z,0
2018-09-07T00:08:06.477Z,0
2018-09-07T00:09:07.860Z,0
2018-09-07T00:10:06.432Z,0
2018-09-07T00:11:06.549Z,0
2018-09-07T00:12:06.442Z,0
2018-09-07T00:13:06.484Z,0
2018-09-07T00:14:06.430Z,0
2018-09-07T00:15:07.043Z,0
2018-09-07T00:16:06.454Z,0
2018-09-07T00:17:06.522Z,0
2018-09-07T00:18:06.485Z,0
2018-09-07T00:19:07.082Z,0
2018-09-07T00:20:06.600Z,0
2018-09-07T00:21:06.876Z,0
2018-09-07T00:22:06.448Z,0
2018-09-07T00:23:06.488Z,0
2018-09-07T00:24:06.524Z,0
2018-09-07T00:25:06.653Z,0
2018-09-07T00:26:06.454Z,0
2018-09-07T00:27:06.925Z,0
2018-09-07T00:28:06.518Z,0
2018-09-07T00:29:06.488Z,0
2018-09-07T00:30:06.491Z,0
2018-09-07T00:31:06.467Z,0
2018-09-07T00:32:06.480Z,0
2018-09-07T00:33:06.861Z,0
2018-09-07T00:34:06.454Z,0
2018-09-07T00:35:06.682Z,0
2018-09-07T00:36:06.473Z,0
2018-09-07T00:37:06.871Z,0
2018-09-07T00:38:06.489Z,0
2018-09-07T00:39:06.895Z,0
2018-09-07T00:40:06.454Z,0
2018-09-07T00:41:06.510Z,0
2018-09-07T00:42:06.538Z,0
2018-09-07T00:43:06.512Z,0
2018-09-07T00:44:06.571Z,0
2018-09-07T00:45:07.051Z,0
2018-09-07T00:46:06.642Z,0
2018-09-07T00:47:06.539Z,0
2018-09-07T00:48:06.493Z,0
2018-09-07T00:49:06.520Z,0
2018-09-07T00:50:06.556Z,0
2018-09-07T00:51:06.887Z,0
2018-09-07T00:52:06.568Z,0
2018-09-07T00:53:06.545Z,0
2018-09-07T00:54:06.536Z,0
2018-09-07T00:55:06.495Z,0
2018-09-07T00:56:06.496Z,0
2018-09-07T00:57:07.853Z,0
2018-09-07T00:58:06.553Z,0
2018-09-07T00:59:06.522Z,0
2018-09-07T01:00:06.705Z,0
2018-09-07T01:01:06.537Z,0
2018-09-07T01:02:06.636Z,0
2018-09-07T01:03:06.882Z,0
2018-09-07T01:04:06.663Z,0
2018-09-07T01:05:06.540Z,0
2018-09-07T01:06:06.528Z,0
2018-09-07T01:07:06.537Z,0
2018-09-07T01:08:06.544Z,0
2018-09-07T01:09:09.041Z,0
2018-09-07T01:10:06.562Z,0
2018-09-07T01:11:06.531Z,0
2018-09-07T01:12:06.606Z,0
2018-09-07T01:13:06.560Z,0
2018-09-07T01:14:06.554Z,0
2018-09-07T01:15:07.887Z,0
2018-09-07T01:16:06.589Z,0
2018-09-07T01:17:06.609Z,0
2018-09-07T01:18:06.555Z,0
2018-09-07T01:19:07.187Z,0
2018-09-07T01:20:06.583Z,0
2018-09-07T01:21:06.975Z,0
2018-09-07T01:22:06.611Z,0
2018-09-07T01:23:06.541Z,0
2018-09-07T01:24:06.578Z,0
2018-09-07T01:25:06.665Z,0
2018-09-07T01:26:06.568Z,0
2018-09-07T01:27:07.001Z,0
2018-09-07T01:28:06.652Z,0
2018-09-07T01:29:06.603Z,0
2018-09-07T01:30:06.590Z,0
2018-09-07T01:31:06.589Z,0
2018-09-07T01:32:06.605Z,0
2018-09-07T01:33:06.947Z,0
2018-09-07T01:34:06.577Z,0
2018-09-07T01:39:24.490Z,0
2018-09-07T01:39:36.743Z,0
2018-09-07T01:40:36.797Z,0
2018-09-07T01:41:36.833Z,0
2018-09-07T01:42:36.715Z,0
2018-09-07T01:43:36.770Z,0
2018-09-07T01:44:36.844Z,0
2018-09-07T01:45:38.159Z,0
2018-09-07T01:46:36.961Z,0
2018-09-07T01:47:36.727Z,0
2018-09-07T01:48:36.787Z,0
2018-09-07T01:49:36.773Z,0
2018-09-07T01:50:36.752Z,0
2018-09-07T01:51:38.807Z,0
2018-09-07T01:52:37.720Z,0
2018-09-07T01:53:36.779Z,0
2018-09-07T01:54:36.752Z,0
2018-09-07T01:55:36.789Z,0
2018-09-07T01:56:36.795Z,0
2018-09-07T01:57:38.156Z,0
2018-09-07T01:58:36.751Z,0
2018-09-07T01:59:36.846Z,0
2018-09-07T02:00:36.744Z,0
2018-09-07T02:01:36.727Z,0
2018-09-07T02:02:36.706Z,0
2018-09-07T02:04:49.485Z,0
2018-09-07T02:05:36.757Z,0
2018-09-07T02:06:36.765Z,0
2018-09-07T02:07:36.790Z,0
2018-09-07T02:08:36.805Z,0
2018-09-07T02:09:36.825Z,0
2018-09-07T02:10:39.144Z,0
2018-09-07T02:11:36.826Z,0
2018-09-07T02:12:36.771Z,0
2018-09-07T02:13:36.815Z,0
2018-09-07T02:14:36.807Z,0
2018-09-07T02:17:44.199Z,0
2018-09-07T02:17:57.861Z,0
2018-09-07T02:18:57.251Z,0
2018-09-07T02:24:14.646Z,0
2018-09-07T02:24:26.875Z,0
2018-09-07T02:25:26.986Z,0
2018-09-07T02:26:26.960Z,0
2018-09-07T02:27:27.027Z,0
2018-09-07T02:28:26.904Z,0
2018-09-07T02:29:26.943Z,0
2018-09-07T02:30:27.211Z,0
2018-09-07T02:31:27.012Z,0
2018-09-07T02:32:26.941Z,0
2018-09-07T02:33:26.983Z,0
2018-09-07T02:34:27.008Z,0
2018-09-07T02:35:32.672Z,0
2018-09-07T02:36:26.956Z,0
2018-09-07T02:37:26.951Z,0
2018-09-07T02:38:26.932Z,0
2018-09-07T02:39:26.947Z,0
2018-09-07T02:40:26.977Z,0
2018-09-07T02:41:27.271Z,0
2018-09-07T02:42:27.116Z,0
2018-09-07T02:43:26.957Z,0
2018-09-07T02:44:26.999Z,0
2018-09-07T02:45:27.012Z,0
2018-09-07T02:46:26.947Z,0
2018-09-07T02:48:01.737Z,0
2018-09-07T02:48:26.988Z,0
2018-09-07T02:49:27.041Z,0
2018-09-07T02:50:27.074Z,0
2018-09-07T02:51:27.061Z,0
2018-09-07T02:52:27.018Z,0
2018-09-07T02:53:28.492Z,0
2018-09-07T02:54:26.974Z,0
2018-09-07T02:55:27.000Z,0
2018-09-07T02:56:27.076Z,0
2018-09-07T02:57:27.069Z,0
2018-09-07T02:58:27.020Z,0
2018-09-07T02:59:26.973Z,0
2018-09-07T03:00:27.105Z,0
2018-09-07T03:01:26.987Z,0
2018-09-07T03:02:27.070Z,0
2018-09-07T03:03:26.986Z,0
2018-09-07T03:04:27.339Z,0
2018-09-07T03:05:27.046Z,0
2018-09-07T03:06:26.971Z,0
2018-09-07T03:07:26.981Z,0
2018-09-07T03:08:26.998Z,0
2018-09-07T03:09:26.973Z,0
2018-09-07T03:10:27.362Z,0
2018-09-07T03:11:27.460Z,0
2018-09-07T03:12:27.049Z,0
2018-09-07T03:13:27.005Z,0
2018-09-07T03:14:27.024Z,0
2018-09-07T03:15:27.044Z,0
2018-09-07T03:16:27.386Z,0
2018-09-07T03:17:27.048Z,0
2018-09-07T03:18:27.056Z,0
2018-09-07T03:19:27.692Z,0
2018-09-07T03:20:26.993Z,0
2018-09-07T03:21:27.015Z,0
2018-09-07T03:22:27.349Z,0
2018-09-07T03:23:27.306Z,0
2018-09-07T03:24:27.061Z,0
2018-09-07T03:25:27.003Z,0
2018-09-07T03:26:27.042Z,0
2018-09-07T03:27:27.053Z,0
2018-09-07T03:28:27.430Z,0
2018-09-07T03:29:27.061Z,0
2018-09-07T03:30:27.070Z,0
2018-09-07T03:33:34.223Z,0
2018-09-07T03:33:46.590Z,0
2018-09-07T03:34:46.922Z,0
2018-09-07T03:35:46.495Z,0
2018-09-07T03:36:46.473Z,0
2018-09-07T03:37:46.470Z,0
2018-09-07T03:38:46.507Z,0
2018-09-07T03:39:46.549Z,0
2018-09-07T03:40:46.923Z,0
2018-09-07T03:41:46.555Z,0
2018-09-07T03:42:46.649Z,0
2018-09-07T03:43:46.497Z,0
2018-09-07T03:44:46.500Z,0
2018-09-07T03:45:46.513Z,0
2018-09-07T03:46:47.065Z,0
2018-09-07T03:47:46.542Z,0
2018-09-07T03:48:46.512Z,0
2018-09-07T03:49:47.629Z,0
2018-09-07T03:50:46.750Z,0
2018-09-07T03:51:46.524Z,0
2018-09-07T03:53:51.121Z,0
2018-09-07T03:54:03.392Z,0
2018-09-07T03:55:04.566Z,0
2018-09-07T03:56:03.410Z,0
2018-09-07T03:57:03.386Z,0
2018-09-07T03:58:03.381Z,0
2018-09-07T03:59:04.740Z,0
2018-09-07T04:04:20.147Z,0
2018-09-07T04:04:32.787Z,0
2018-09-07T04:05:32.443Z,0
2018-09-07T04:06:32.388Z,0
2018-09-07T04:07:32.384Z,0
2018-09-07T04:08:32.816Z,0
2018-09-07T04:09:32.436Z,0
2018-09-07T04:10:32.759Z,0
2018-09-07T04:11:32.549Z,0
2018-09-07T04:12:32.418Z,0
2018-09-07T04:13:32.429Z,0
2018-09-07T04:14:32.428Z,0
2018-09-07T04:19:52.518Z,0
2018-09-07T04:20:05.138Z,0
2018-09-07T04:21:04.815Z,0
2018-09-07T04:22:04.836Z,0
2018-09-07T04:23:04.862Z,0
2018-09-07T04:24:04.819Z,0
2018-09-07T04:29:22.649Z,0
2018-09-07T04:29:34.995Z,0
2018-09-07T04:30:34.910Z,0
2018-09-07T04:31:34.975Z,0
2018-09-07T04:32:35.007Z,0
2018-09-07T04:33:36.330Z,0
2018-09-07T04:34:35.009Z,0
2018-09-07T04:35:34.995Z,0
2018-09-07T04:36:34.941Z,0
2018-09-07T04:37:35.008Z,0
2018-09-07T04:38:34.950Z,0
2018-09-07T04:39:36.326Z,0
2018-09-07T04:40:34.921Z,0
2018-09-07T04:41:34.966Z,0
2018-09-07T04:42:35.084Z,0
2018-09-07T04:43:35.016Z,0
2018-09-07T04:44:34.996Z,0
2018-09-07T04:45:35.346Z,0
2018-09-07T04:46:34.971Z,0
2018-09-07T04:47:35.093Z,0
2018-09-07T04:48:35.060Z,0
2018-09-07T04:49:35.034Z,0
2018-09-07T04:50:35.015Z,0
2018-09-07T04:51:35.239Z,0
2018-09-07T04:52:35.043Z,0
2018-09-07T04:53:34.978Z,0
2018-09-07T04:54:34.983Z,0
2018-09-07T04:55:35.282Z,0
2018-09-07T04:56:34.973Z,0
2018-09-07T04:57:36.492Z,0
2018-09-07T04:58:35.496Z,0
2018-09-07T04:59:35.015Z,0
2018-09-07T05:00:34.983Z,0
2018-09-07T05:01:34.959Z,0
2018-09-07T05:02:35.023Z,0
2018-09-07T05:03:36.373Z,0
2018-09-07T05:04:34.977Z,0
2018-09-07T05:05:34.985Z,0
2018-09-07T05:06:34.960Z,0
2018-09-07T05:07:35.030Z,0
2018-09-07T05:08:34.980Z,0
2018-09-07T05:09:35.299Z,0
2018-09-07T05:10:35.027Z,0
2018-09-07T05:11:35.003Z,0
2018-09-07T05:12:35.027Z,0
2018-09-07T05:13:35.079Z,0
2018-09-07T05:21:04.348Z,0
2018-09-07T05:21:16.630Z,0
2018-09-07T05:22:16.784Z,0
2018-09-07T05:23:16.839Z,0
2018-09-07T05:24:16.623Z,0
2018-09-07T05:25:16.700Z,0
2018-09-07T05:26:16.660Z,0
2018-09-07T05:27:16.741Z,0
2018-09-07T05:28:16.617Z,0
2018-09-07T05:29:16.619Z,0
2018-09-07T05:30:18.155Z,0
2018-09-07T05:31:17.012Z,0
2018-09-07T05:32:16.640Z,0
2018-09-07T05:33:16.632Z,0
2018-09-07T05:34:16.682Z,0
2018-09-07T05:35:16.707Z,0
2018-09-07T05:36:17.007Z,0
2018-09-07T05:37:16.675Z,5
2018-09-07T05:38:16.708Z,5
2018-09-07T05:39:16.693Z,5
2018-09-07T05:40:16.718Z,5
2018-09-07T05:41:16.682Z,5
2018-09-07T05:42:20.171Z,5
2018-09-07T05:43:16.642Z,5
2018-09-07T05:44:16.634Z,5
2018-09-07T05:45:16.686Z,5
2018-09-07T05:46:16.653Z,5
2018-09-07T05:47:16.671Z,5
2018-09-07T05:49:16.636Z,5
2018-09-07T05:50:16.767Z,5
2018-09-07T05:51:16.688Z,5
2018-09-07T05:52:16.724Z,5
2018-09-07T05:53:16.740Z,5
2018-09-07T05:54:17.074Z,5
2018-09-07T05:55:16.854Z,0
2018-09-07T05:56:16.712Z,0
2018-09-07T05:57:16.732Z,0
2018-09-07T05:58:16.804Z,0
2018-09-07T05:59:16.891Z,0
2018-09-07T06:00:17.120Z,0
2018-09-07T06:01:16.682Z,0
2018-09-07T06:02:16.693Z,0
2018-09-07T06:03:16.661Z,0
2018-09-07T06:04:16.948Z,0
2018-09-07T06:05:17.063Z,0
2018-09-07T06:06:17.375Z,0
2018-09-07T06:07:16.915Z,0
2018-09-07T06:08:16.951Z,0
2018-09-07T06:09:16.928Z,0
2018-09-07T06:10:16.937Z,0
2018-09-07T06:11:16.802Z,0
2018-09-07T06:12:17.239Z,0
2018-09-07T06:13:16.726Z,0
2018-09-07T06:14:16.973Z,0
2018-09-07T06:15:16.892Z,0
2018-09-07T06:16:18.425Z,0
2018-09-07T06:17:16.851Z,0
2018-09-07T06:18:18.140Z,0
2018-09-07T06:19:31.752Z,0
2018-09-07T06:20:16.948Z,0
2018-09-07T06:21:16.917Z,0
2018-09-07T06:22:16.851Z,0
2018-09-07T06:23:16.890Z,0
2018-09-07T06:24:17.214Z,0
2018-09-07T06:25:16.890Z,0
2018-09-07T06:26:16.823Z,0
2018-09-07T06:27:16.721Z,0
2018-09-07T06:28:16.738Z,0
2018-09-07T06:29:17.001Z,0
2018-09-07T06:30:17.316Z,0
2018-09-07T06:31:16.877Z,0
2018-09-07T06:32:16.845Z,0
2018-09-07T06:33:17.030Z,0
2018-09-07T06:34:16.781Z,0
2018-09-07T06:35:16.904Z,0
2018-09-07T06:36:17.269Z,0
2018-09-07T06:37:16.888Z,0
2018-09-07T06:38:16.864Z,0
2018-09-07T06:39:17.052Z,0
2018-09-07T06:40:16.805Z,0
2018-09-07T06:41:16.820Z,0
2018-09-07T06:42:17.207Z,0
2018-09-07T06:43:16.801Z,0
2018-09-07T06:44:17.040Z,0
2018-09-07T06:45:16.878Z,0
2018-09-07T06:46:16.877Z,0
2018-09-07T06:47:16.829Z,0
2018-09-07T06:48:18.191Z,0
2018-09-07T06:49:16.843Z,0
2018-09-07T06:50:16.907Z,5
2018-09-07T06:51:16.910Z,5
2018-09-07T06:52:17.033Z,5
2018-09-07T06:53:16.883Z,5
2018-09-07T06:54:20.939Z,5
2018-09-07T06:55:16.906Z,5
2018-09-07T06:56:16.934Z,5
2018-09-07T06:57:16.776Z,5
2018-09-07T07:00:24.116Z,10
2018-09-07T07:00:36.401Z,10
2018-09-07T07:01:36.375Z,10
2018-09-07T07:02:36.672Z,15
2018-09-07T07:03:36.373Z,15
2018-09-07T07:04:36.394Z,15
2018-09-07T07:05:36.770Z,15
2018-09-07T07:06:36.429Z,15
2018-09-07T07:07:36.435Z,20
2018-09-07T07:08:36.742Z,20
2018-09-07T07:09:36.375Z,20
2018-09-07T07:10:36.392Z,15
2018-09-07T07:11:36.749Z,15
2018-09-07T07:12:36.386Z,15
2018-09-07T07:13:36.418Z,15
2018-09-07T07:14:36.567Z,15
2018-09-07T07:15:36.357Z,15
2018-09-07T07:16:36.430Z,15
2018-09-07T07:17:37.866Z,10
2018-09-07T07:18:36.539Z,10
2018-09-07T07:19:36.449Z,10
2018-09-07T07:20:36.424Z,10
2018-09-07T07:21:36.418Z,10
2018-09-07T07:22:36.424Z,10
2018-09-07T07:23:36.932Z,10
2018-09-07T07:24:36.417Z,10
2018-09-07T07:25:36.462Z,5
2018-09-07T07:26:36.497Z,5
2018-09-07T07:27:36.493Z,5
2018-09-07T07:28:36.447Z,5
2018-09-07T07:29:36.913Z,5
2018-09-07T07:30:36.433Z,5
2018-09-07T07:31:36.464Z,5
2018-09-07T07:32:36.458Z,5
2018-09-07T07:33:36.438Z,10
2018-09-07T07:34:36.512Z,10
2018-09-07T07:35:40.649Z,15
2018-09-07T07:36:36.423Z,20
2018-09-07T07:41:53.977Z,20
2018-09-07T07:42:06.606Z,20
2018-09-07T07:43:06.239Z,20
2018-09-07T07:44:06.261Z,20
2018-09-07T07:45:06.263Z,20
2018-09-07T07:46:06.243Z,20
2018-09-07T07:47:06.243Z,20
2018-09-07T07:48:06.911Z,25
2018-09-07T07:49:06.300Z,20
2018-09-07T07:50:06.315Z,25
2018-09-07T07:51:06.310Z,30
2018-09-07T07:52:06.218Z,25
2018-09-07T07:53:06.270Z,20
2018-09-07T07:54:06.608Z,20
2018-09-07T07:55:06.348Z,20
2018-09-07T07:56:07.023Z,20
2018-09-07T07:57:06.416Z,20
2018-09-07T07:58:06.371Z,15
2018-09-07T07:59:06.448Z,15
2018-09-07T08:00:06.856Z,15
2018-09-07T08:01:06.853Z,15
2018-09-07T08:02:06.281Z,20
2018-09-07T08:03:06.332Z,20
2018-09-07T08:04:06.237Z,20
2018-09-07T08:05:06.337Z,25
2018-09-07T08:06:08.702Z,25
2018-09-07T08:07:06.356Z,25
2018-09-07T08:08:06.259Z,25
2018-09-07T08:09:06.322Z,30
2018-09-07T08:10:06.298Z,30
2018-09-07T08:11:06.351Z,30
2018-09-07T08:12:07.641Z,35
2018-09-07T08:13:06.361Z,30
2018-09-07T08:14:06.574Z,35
2018-09-07T08:15:06.381Z,35
2018-09-07T08:16:06.511Z,35
2018-09-07T08:17:06.407Z,30
2018-09-07T08:18:07.823Z,30
2018-09-07T08:19:06.356Z,30
2018-09-07T08:20:06.371Z,25
2018-09-07T08:21:06.401Z,30
2018-09-07T08:22:06.370Z,45
2018-09-07T08:23:06.378Z,45
2018-09-07T08:24:08.811Z,50
2018-09-07T08:25:06.337Z,40
2018-09-07T08:26:06.549Z,55
2018-09-07T08:27:07.074Z,60
2018-09-07T08:28:06.345Z,60
2018-09-07T08:29:06.431Z,60
2018-09-07T08:30:06.707Z,60
2018-09-07T08:31:06.313Z,60
2018-09-07T08:32:06.388Z,60
2018-09-07T08:33:06.671Z,60
2018-09-07T08:34:06.428Z,60
2018-09-07T08:35:06.388Z,60
2018-09-07T08:36:08.699Z,60
2018-09-07T08:37:06.384Z,60
2018-09-07T08:38:06.413Z,55
2018-09-07T08:39:06.485Z,55
2018-09-07T08:40:07.464Z,60
2018-09-07T08:41:06.429Z,55
2018-09-07T08:42:06.657Z,45
2018-09-07T08:43:06.416Z,30
2018-09-07T08:44:06.383Z,55
2018-09-07T08:45:06.404Z,55
2018-09-07T08:46:06.500Z,60
2018-09-07T08:47:06.375Z,55
2018-09-07T08:48:06.767Z,55
2018-09-07T08:49:06.388Z,55
2018-09-07T08:50:06.361Z,55
2018-09-07T08:51:06.343Z,50
2018-09-07T08:52:06.381Z,55
2018-09-07T08:53:06.416Z,35
2018-09-07T08:54:06.782Z,35
2018-09-07T08:55:06.638Z,50
2018-09-07T08:56:06.377Z,45
2018-09-07T08:57:06.407Z,30
2018-09-07T08:58:06.452Z,45
2018-09-07T08:59:06.392Z,30
2018-09-07T09:00:06.803Z,30
2018-09-07T09:01:06.363Z,25
2018-09-07T09:02:06.378Z,25
2018-09-07T09:03:06.381Z,25
2018-09-07T09:04:06.415Z,25
2018-09-07T09:05:06.367Z,35
2018-09-07T09:06:06.715Z,25
2018-09-07T09:07:06.372Z,25
2018-09-07T09:08:06.410Z,25
2018-09-07T09:09:06.343Z,20
2018-09-07T09:10:06.396Z,20
2018-09-07T09:11:06.454Z,20
2018-09-07T09:12:06.783Z,15
2018-09-07T09:13:06.441Z,15
2018-09-07T09:14:06.445Z,15
2018-09-07T09:15:06.365Z,10
2018-09-07T09:16:06.687Z,10
2018-09-07T09:17:06.379Z,10
2018-09-07T09:18:10.428Z,10
2018-09-07T09:19:07.467Z,10
2018-09-07T09:20:07.058Z,10
2018-09-07T09:21:06.449Z,10
2018-09-07T09:22:06.425Z,10
2018-09-07T09:23:06.439Z,10
2018-09-07T09:24:08.009Z,10
2018-09-07T09:25:06.425Z,10
2018-09-07T09:26:06.457Z,10
2018-09-07T09:27:06.404Z,10
2018-09-07T09:28:06.415Z,10
2018-09-07T09:29:06.461Z,10
2018-09-07T09:30:06.822Z,10
2018-09-07T09:31:06.391Z,10
2018-09-07T09:32:06.468Z,10
2018-09-07T09:33:06.575Z,10
2018-09-07T09:34:06.424Z,10
2018-09-07T09:35:07.503Z,10
2018-09-07T09:36:10.007Z,15
2018-09-07T09:37:06.451Z,15
2018-09-07T09:38:06.482Z,20
2018-09-07T09:39:06.411Z,20
2018-09-07T09:40:06.490Z,20
2018-09-07T09:47:32.616Z,40
2018-09-07T09:47:44.904Z,40
2018-09-07T09:48:44.879Z,55
2018-09-07T09:49:44.875Z,45
2018-09-07T09:50:44.919Z,40
2018-09-07T09:51:45.225Z,40
2018-09-07T09:52:45.122Z,30
2018-09-07T09:55:51.903Z,25
2018-09-07T09:56:04.170Z,20
2018-09-07T09:57:04.864Z,20
2018-09-07T09:58:04.154Z,20
2018-09-07T09:59:04.223Z,15
2018-09-07T10:00:04.164Z,15
2018-09-07T10:01:04.783Z,10
2018-09-07T10:02:04.233Z,10
2018-09-07T10:03:04.544Z,5
2018-09-07T10:04:04.151Z,5
2018-09-07T10:05:04.152Z,5
2018-09-07T10:06:04.155Z,5
2018-09-07T10:07:04.125Z,5
2018-09-07T10:08:04.173Z,10
2018-09-07T10:09:05.638Z,10
2018-09-07T10:10:04.198Z,10
2018-09-07T10:11:04.169Z,10
2018-09-07T10:12:04.353Z,10
2018-09-07T10:13:04.149Z,10
2018-09-07T10:14:04.173Z,10
2018-09-07T10:15:04.586Z,10
2018-09-07T10:16:04.182Z,10
2018-09-07T10:18:34.457Z,10
2018-09-07T10:19:21.400Z,10
2018-09-07T10:20:21.573Z,10
2018-09-07T10:21:21.162Z,10
2018-09-07T10:22:21.250Z,10
2018-09-07T10:23:21.177Z,10
2018-09-07T10:24:21.257Z,10
2018-09-07T10:25:21.368Z,10
2018-09-07T10:26:21.549Z,15
2018-09-07T10:27:21.222Z,15
2018-09-07T10:28:21.389Z,15
2018-09-07T10:29:21.382Z,15
2018-09-07T10:30:21.404Z,15
2018-09-07T10:31:21.409Z,15
2018-09-07T10:32:21.657Z,15
2018-09-07T10:33:21.390Z,10
2018-09-07T10:34:21.488Z,10
2018-09-07T10:35:21.403Z,10
2018-09-07T10:42:49.477Z,10
2018-09-07T10:43:01.637Z,10
2018-09-07T10:44:01.485Z,10
2018-09-07T10:45:02.227Z,10
2018-09-07T10:46:01.648Z,10
2018-09-07T10:47:02.097Z,10
2018-09-07T10:48:01.663Z,15
2018-09-07T10:49:01.610Z,15
2018-09-07T10:50:01.911Z,20
2018-09-07T10:51:01.729Z,20
2018-09-07T10:52:01.651Z,20
2018-09-07T10:53:02.145Z,20
2018-09-07T10:54:01.601Z,20
2018-09-07T10:55:01.906Z,20
2018-09-07T10:56:01.993Z,20
2018-09-07T10:57:01.786Z,20
2018-09-07T10:58:01.759Z,25
2018-09-07T10:59:03.023Z,25
2018-09-07T11:00:02.001Z,30
2018-09-07T11:01:02.976Z,35
2018-09-07T11:02:01.719Z,35
2018-09-07T11:03:01.690Z,35
2018-09-07T11:04:01.704Z,35
2018-09-07T11:05:02.227Z,35
2018-09-07T11:06:01.712Z,65
2018-09-07T11:07:01.740Z,55
2018-09-07T11:08:01.687Z,70
2018-09-07T11:09:01.732Z,40
2018-09-07T11:10:01.984Z,30
2018-09-07T11:11:02.013Z,25
2018-09-07T11:12:01.761Z,25
2018-09-07T11:13:01.725Z,20
2018-09-07T11:14:01.942Z,20
2018-09-07T11:15:02.020Z,20
2018-09-07T11:16:01.793Z,15
2018-09-07T11:17:02.177Z,15
2018-09-07T11:18:01.718Z,15
2018-09-07T11:19:01.725Z,10
2018-09-07T11:20:01.972Z,10
2018-09-07T11:21:01.906Z,10
2018-09-07T11:22:01.761Z,10
2018-09-07T11:23:02.064Z,10
2018-09-07T11:24:01.792Z,10
2018-09-07T11:25:03.118Z,10
2018-09-07T11:26:01.704Z,10
2018-09-07T11:27:01.803Z,10
2018-09-07T11:28:01.721Z,10
2018-09-07T11:29:02.173Z,10
2018-09-07T11:30:01.942Z,10
2018-09-07T11:31:01.735Z,10
2018-09-07T11:32:01.740Z,10
2018-09-07T11:33:01.861Z,10
2018-09-07T11:34:01.831Z,10
2018-09-07T11:35:02.344Z,10
2018-09-07T11:36:03.137Z,10
2018-09-07T11:37:01.776Z,10
2018-09-07T11:38:01.780Z,10
2018-09-07T11:39:01.720Z,10
2018-09-07T11:40:02.041Z,10
2018-09-07T11:41:05.488Z,10
2018-09-07T11:42:01.776Z,10
2018-09-07T11:43:01.792Z,10
2018-09-07T11:44:01.785Z,15
2018-09-07T11:45:01.999Z,15
2018-09-07T11:46:01.766Z,15
2018-09-07T11:47:02.149Z,15
2018-09-07T11:48:01.777Z,15
2018-09-07T11:49:01.785Z,15
2018-09-07T11:50:02.013Z,15
2018-09-07T11:51:01.803Z,15
2018-09-07T11:52:01.806Z,10
2018-09-07T11:53:04.172Z,10
2018-09-07T11:54:02.333Z,10
2018-09-07T11:55:02.101Z,10
2018-09-07T11:56:01.873Z,10
2018-09-07T11:57:01.804Z,10
2018-09-07T11:58:02.003Z,10
2018-09-07T11:59:03.152Z,10
2018-09-07T12:00:01.894Z,10
2018-09-07T12:01:01.761Z,10
2018-09-07T12:02:01.973Z,10
2018-09-07T12:03:01.877Z,10
2018-09-07T12:08:18.957Z,15
2018-09-07T12:08:31.132Z,15
2018-09-07T12:09:31.171Z,20
2018-09-07T12:10:31.152Z,20
2018-09-07T12:11:31.253Z,20
2018-09-07T12:12:31.695Z,20
2018-09-07T12:13:31.371Z,20
2018-09-07T12:14:31.206Z,20
2018-09-07T12:15:31.180Z,15
2018-09-07T12:16:31.139Z,15
2018-09-07T12:17:31.293Z,15
2018-09-07T12:18:32.222Z,15
2018-09-07T12:19:31.241Z,15
2018-09-07T12:20:31.238Z,15
2018-09-07T12:21:31.187Z,20
2018-09-07T12:22:31.193Z,20
2018-09-07T12:23:31.307Z,20
2018-09-07T12:24:31.545Z,20
2018-09-07T12:25:31.167Z,20
2018-09-07T12:26:31.175Z,20
2018-09-07T12:27:31.216Z,20
2018-09-07T12:28:31.272Z,20
2018-09-07T12:29:31.198Z,20
2018-09-07T12:30:31.617Z,20
2018-09-07T12:31:31.216Z,20
2018-09-07T12:32:31.191Z,20
2018-09-07T12:33:31.155Z,20
2018-09-07T12:34:31.175Z,20
2018-09-07T12:35:31.235Z,20
2018-09-07T12:36:32.621Z,20
2018-09-07T12:37:31.179Z,20
2018-09-07T12:38:31.187Z,20
2018-09-07T12:39:31.124Z,20
2018-09-07T12:40:31.164Z,20
2018-09-07T12:41:31.208Z,20
2018-09-07T12:42:31.555Z,20
2018-09-07T12:43:31.164Z,20
2018-09-07T12:44:37.095Z,20
2018-09-07T12:45:31.204Z,30
2018-09-07T12:46:31.239Z,50
2018-09-07T12:47:31.155Z,50
2018-09-07T12:48:33.879Z,50
2018-09-07T12:49:31.189Z,60
2018-09-07T12:50:31.196Z,55
2018-09-07T12:51:31.203Z,55
2018-09-07T12:52:31.178Z,40
2018-09-07T12:53:31.183Z,50
2018-09-07T12:54:31.531Z,70
2018-09-07T12:55:31.230Z,55
2018-09-07T12:57:06.085Z,65
2018-09-07T12:57:31.179Z,60
2018-09-07T12:58:31.219Z,55
2018-09-07T12:59:31.256Z,60
2018-09-07T13:00:35.912Z,60
2018-09-07T13:01:31.240Z,40
2018-09-07T13:02:31.451Z,30
2018-09-07T13:03:31.250Z,40
2018-09-07T13:04:31.256Z,55
2018-09-07T13:05:31.261Z,25
2018-09-07T13:06:31.644Z,25
2018-09-07T13:07:31.219Z,25
2018-09-07T13:08:31.349Z,25
2018-09-07T13:09:31.220Z,25
2018-09-07T13:10:31.225Z,30
2018-09-07T13:11:31.232Z,30
2018-09-07T13:12:31.684Z,45
2018-09-07T13:13:31.216Z,55
2018-09-07T13:14:31.222Z,30
2018-09-07T13:15:31.231Z,25
2018-09-07T13:16:31.235Z,25
2018-09-07T13:17:31.271Z,30
2018-09-07T13:18:31.617Z,25
2018-09-07T13:19:31.898Z,55
2018-09-07T13:20:31.291Z,50
2018-09-07T13:21:31.330Z,40
2018-09-07T13:22:31.234Z,55
2018-09-07T13:23:31.238Z,55
2018-09-07T13:24:32.691Z,55
2018-09-07T13:25:31.323Z,50
2018-09-07T13:26:31.296Z,50
2018-09-07T13:27:31.263Z,45
2018-09-07T13:28:31.315Z,30
2018-09-07T13:29:31.280Z,25
2018-09-07T13:30:32.618Z,25
2018-09-07T13:32:06.012Z,25
2018-09-07T13:32:31.299Z,45
2018-09-07T13:33:31.306Z,50
2018-09-07T13:34:31.281Z,40
2018-09-07T13:35:31.409Z,45
2018-09-07T13:36:31.638Z,45
2018-09-07T13:37:31.269Z,45
2018-09-07T13:38:31.341Z,45
2018-09-07T13:39:31.294Z,45
2018-09-07T13:40:31.349Z,50
2018-09-07T13:41:31.409Z,50
2018-09-07T13:42:31.679Z,50
2018-09-07T13:43:31.274Z,50
2018-09-07T13:44:31.311Z,40
2018-09-07T13:45:31.321Z,40
2018-09-07T13:47:35.943Z,50
2018-09-07T13:47:48.432Z,50
2018-09-07T13:48:48.173Z,50
2018-09-07T13:49:48.070Z,45
2018-09-07T13:50:48.110Z,45
2018-09-07T13:51:48.161Z,45
2018-09-07T13:52:48.160Z,45
2018-09-07T13:53:48.539Z,45
2018-09-07T13:54:48.486Z,40
2018-09-07T13:55:48.156Z,40
2018-09-07T13:56:48.250Z,40
2018-09-07T13:57:48.103Z,40
2018-09-07T13:58:48.246Z,20
2018-09-07T13:59:48.454Z,35
2018-09-07T14:00:48.145Z,35
2018-09-07T14:01:48.251Z,35
2018-09-07T14:02:48.155Z,40
2018-09-07T14:03:48.142Z,15
2018-09-07T14:04:48.184Z,15
2018-09-07T14:05:48.512Z,15
2018-09-07T14:06:48.147Z,15
2018-09-07T14:07:48.324Z,30
2018-09-07T14:08:48.180Z,20
2018-09-07T14:09:48.172Z,20
2018-09-07T14:10:48.178Z,20
2018-09-07T14:11:48.555Z,35
2018-09-07T14:12:48.220Z,20
2018-09-07T14:13:48.154Z,20
2018-09-07T14:14:48.935Z,20
2018-09-07T14:17:55.694Z,20
2018-09-07T14:18:07.924Z,20
2018-09-07T14:19:07.990Z,20
2018-09-07T14:20:08.682Z,35
2018-09-07T14:21:07.884Z,20
2018-09-07T14:22:08.028Z,20
2018-09-07T14:23:12.024Z,15
2018-09-07T14:24:07.919Z,30
2018-09-07T14:25:08.029Z,20
2018-09-07T14:26:07.863Z,20
2018-09-07T14:27:07.901Z,20
2018-09-07T14:28:07.911Z,20
2018-09-07T14:29:08.600Z,40
2018-09-07T14:30:08.370Z,25
2018-09-07T14:31:07.936Z,35
2018-09-07T14:32:07.904Z,35
2018-09-07T14:33:07.876Z,35
2018-09-07T14:34:07.952Z,25
2018-09-07T14:35:08.511Z,45
2018-09-07T14:36:07.949Z,50
2018-09-07T14:37:17.835Z,50
2018-09-07T14:38:07.946Z,45
2018-09-07T14:39:07.888Z,45
2018-09-07T14:40:07.866Z,45
2018-09-07T14:41:09.243Z,45
2018-09-07T14:42:07.984Z,45
2018-09-07T14:43:07.948Z,45
2018-09-07T14:44:07.912Z,40
2018-09-07T14:45:08.061Z,40
2018-09-07T14:46:08.001Z,35
2018-09-07T14:47:09.375Z,40
2018-09-07T14:54:35.068Z,35
2018-09-07T14:54:47.466Z,35
2018-09-07T14:55:47.247Z,35
2018-09-07T14:56:47.316Z,35
2018-09-07T14:57:47.256Z,35
2018-09-07T14:58:47.260Z,35
2018-09-07T14:59:48.668Z,35
2018-09-07T15:00:47.286Z,30
2018-09-07T15:01:47.312Z,30
2018-09-07T15:02:47.254Z,25
2018-09-07T15:03:47.311Z,30
2018-09-07T15:04:47.266Z,25
2018-09-07T15:05:48.199Z,25
2018-09-07T15:06:47.420Z,30
2018-09-07T15:07:47.252Z,30
2018-09-07T15:08:47.357Z,35
2018-09-07T15:09:47.575Z,30
2018-09-07T15:10:47.456Z,35
2018-09-07T15:11:48.033Z,30
2018-09-07T15:12:48.123Z,30
2018-09-07T15:13:47.647Z,30
2018-09-07T15:14:47.523Z,30
2018-09-07T15:15:47.644Z,25
2018-09-07T15:16:47.596Z,25
2018-09-07T15:17:47.900Z,25
2018-09-07T15:18:47.458Z,25
2018-09-07T15:19:48.409Z,25
2018-09-07T15:20:47.522Z,25
2018-09-07T15:21:47.479Z,20
2018-09-07T15:22:48.190Z,20
2018-09-07T15:23:49.080Z,25
2018-09-07T15:24:48.133Z,25
2018-09-07T15:25:48.058Z,20
2018-09-07T15:26:48.111Z,20